map of RGA home
RGA - Airport
Location
City:  Rio Grande, Tierra del Fuego, Argentina
ICAO:SAWE
IATA:RGA

Details
Type:Airport (Aerodrome, Airfield)
Use:Public/Civil, Military
Latitude:5346'40"S (-53.777666)
Longitude:6744'58"W (-67.749388)
Datum:WGS 1984
Elevation:65 ft (20 m)
Variation:11.29E (WMM2015v2 magnetic declination)
-0.07 annual change
Runways:1
Longest:6561 × 131 ft (2000 × 40 m), paved

Time
Time Zone:UTC-3
Local Time:

Weather
METAR:SAWE 041400Z 25017KT CAVOK 24/07 Q1010
TAF:SAWE 041100Z 0412/0512 29010KT CAVOK TX28/0419Z TN09/0510Z
BECMG 0418/0421 VRB15KT
BECMG 0421/0500 36010KT
BECMG 0503/0512 VRB10KT

Related Locations
Nearby:
Farthest:UIUV: 12421 mi / 19990 km
Dzhilinda, BU, RU

Find:

   beyond  
but within

Other Information
Maps:
NOTAMs:
Links:
Sources:

  
  • flag of Argentina
  

Sectional Chart

Flight Planning
at skyvector.com

Satellite Image

Google Maps Satellite view

 

Copyright © 2004-2019 Karl L. Swartz. All rights reserved.
The Great Circle Mapper name and logo are trademarks of the Great Circle Mapper.
All other trademarks mentioned herein belong to their respective owners.
Please see credits for attibutions and further copyright information.

  Follow gcmap on Facebook Follow gcmap on Twitter GCmap on LinkedIn

hCard Microformat

Geo Microformat